• Join FlightAware (Why Join?)
  • Login
  • US Flag 
02:52AM EDT


 

Airport Tracker/Info


-or-


 

Live Flight TrackerFlight Track Log ✈ C-FCJS ✈ 03-May-2013 ✈ KJYO - CYFD

Flight Track Log - Related Links

Times and Time Zones

All times are in EDT time to prevent confusion due to time zone crossing. See the C-FCJS flight status page for this flight to view local times or setup timezone preferences in your user account.

Time Position Orientation Groundspeed Altitude Reporting Facility
EDT Latitude Longitude Course Direction KTS MPH feet Rate Location/Type
01:46PM 39.0500 -77.5500 311° West 117 135 1,200  Level Potomac TRACON
01:47PM 39.0667 -77.5667 346° North 107 123 2,000 600 Climbing Potomac TRACON
01:48PM 39.0945 -77.5648 346° North  Level FlightAware Approximate
01:48PM 39.1000 -77.6000 322° Northwest 116 133 2,500  Level Potomac TRACON
01:50PM 39.1167 -77.6167 322° Northwest 108 124 2,800 300 Climbing Potomac TRACON
01:51PM 39.1500 -77.6500 322° Northwest 115 132 3,200 360 Climbing Potomac TRACON
01:52PM 39.2937 -77.6989 311° West  Level FlightAware Approximate
01:52PM 39.1833 -77.6667 339° North 116 133 3,600  Level Potomac TRACON
01:52PM 39.1975 -77.6861 313° West 131 151 4,100 540 Climbing Washington Center
01:53PM 39.2261 -77.7108 326° Northwest 136 157 4,600 420 Climbing Washington Center
01:54PM 39.2550 -77.7358 326° Northwest 131 151 5,000 360 Climbing Washington Center
01:55PM 39.2856 -77.7636 325° Northwest 131 151 5,400 480 Climbing Washington Center
01:56PM 39.3144 -77.7886 326° Northwest 131 151 6,000 540 Climbing Washington Center
01:57PM 39.3431 -77.8136 326° Northwest 126 145 6,500 420 Climbing Washington Center
01:58PM 39.3717 -77.8414 323° Northwest 126 145 6,900 360 Climbing Washington Center
01:59PM 39.4025 -77.8639 331° Northwest 126 145 7,300 360 Climbing Washington Center
02:00PM 39.4356 -77.8808 338° Northwest 120 138 7,700 420 Climbing Washington Center
02:01PM 39.4708 -77.9008 336° Northwest 120 138 8,200 480 Climbing Washington Center
02:02PM 39.5017 -77.9206 334° Northwest 125 144 8,700 480 Climbing Washington Center
02:05PM 39.5825 -77.9678 336° Northwest 136 157 9,900 480 Climbing Cleveland Center
02:06PM 39.6164 -77.9906 333° Northwest 136 157 10,300 480 Climbing Cleveland Center
02:07PM 39.6503 -78.0108 335° Northwest 136 157 10,900 540 Climbing Cleveland Center
02:08PM 39.6819 -78.0314 333° Northwest 136 157 11,400 420 Climbing Cleveland Center
02:09PM 39.7139 -78.0517 334° Northwest 136 157 11,800 300 Climbing Cleveland Center
02:10PM 39.7475 -78.0719 335° Northwest 136 157 12,100 120 Climbing Cleveland Center
02:11PM 39.7836 -78.0978 331° Northwest 136 157 12,100 -60 Level Cleveland Center
02:12PM 39.8258 -78.1206 337° Northwest 148 170 12,000  Descending Cleveland Center
02:13PM 39.8681 -78.1461 335° Northwest 158 182 12,100  Climbing Cleveland Center
02:14PM 39.9103 -78.1769 331° Northwest 163 188 12,000 -60 Descending Cleveland Center
02:15PM 39.9547 -78.2025 336° Northwest 163 188 12,000  Level Cleveland Center
02:16PM 39.9969 -78.2308 333° Northwest 163 188 12,100  Climbing Cleveland Center
02:17PM 40.0372 -78.2539 336° Northwest 163 188 12,000 -60 Descending Cleveland Center
02:18PM 40.0794 -78.2875 329° Northwest 168 193 12,000  Level Cleveland Center
02:19PM 40.1217 -78.3161 333° Northwest 168 193 12,000  Level Cleveland Center
02:20PM 40.1619 -78.3417 334° Northwest 163 188 12,100  Climbing Cleveland Center
02:21PM 40.2061 -78.3675 336° Northwest 163 188 12,000  Descending Cleveland Center
02:22PM 40.2464 -78.3933 334° Northwest 163 188 12,100  Climbing Cleveland Center
02:23PM 40.2906 -78.4192 336° Northwest 163 188 12,100 -60 Level Cleveland Center
02:24PM 40.3308 -78.4506 329° Northwest 163 188 12,000 -60 Descending Cleveland Center
02:25PM 40.3728 -78.4764 335° Northwest 163 188 12,000  Level Cleveland Center
02:26PM 40.4108 -78.5025 332° Northwest 163 188 12,000  Level Cleveland Center
02:27PM 40.4489 -78.5286 332° Northwest 163 188 12,100  Climbing Cleveland Center
02:28PM 40.4889 -78.5519 336° Northwest 163 188 12,000 -60 Descending Cleveland Center
02:29PM 40.5311 -78.5781 335° Northwest 163 188 12,000  Level Cleveland Center
02:30PM 40.5692 -78.6042 332° Northwest 163 188 12,000  Level Cleveland Center
02:31PM 40.6069 -78.6278 335° Northwest 163 188 12,000 -60 Level Cleveland Center
02:32PM 40.6492 -78.6539 335° Northwest 163 188 11,900  Descending Cleveland Center
02:33PM 40.6892 -78.6828 331° Northwest 163 188 12,000  Climbing Cleveland Center
02:34PM 40.7314 -78.7089 335° Northwest 163 188 11,900  Descending Cleveland Center
02:35PM 40.7714 -78.7353 333° Northwest 163 188 12,000  Climbing Cleveland Center
02:36PM 40.8114 -78.7614 334° Northwest 163 188 12,000  Level Cleveland Center
02:37PM 40.8578 -78.7931 333° Northwest 168 193 12,000  Level Cleveland Center
02:38PM 40.9000 -78.8194 335° Northwest 168 193 12,000  Level Cleveland Center
02:39PM 40.9419 -78.8486 332° Northwest 163 188 12,000  Level Cleveland Center
02:40PM 40.9842 -78.8750 335° Northwest 163 188 12,000  Level Cleveland Center
02:41PM 41.0264 -78.9042 332° Northwest 163 188 12,000  Level Cleveland Center
02:42PM 41.0683 -78.9306 335° Northwest 163 188 12,000  Level Cleveland Center
02:43PM 41.1083 -78.9600 331° Northwest 163 188 12,000  Level Cleveland Center
02:44PM 41.1442 -78.9811 336° Northwest 163 188 12,000  Level Cleveland Center
02:45PM 41.1861 -79.0078 334° Northwest 163 188 12,000  Level Cleveland Center
02:46PM 41.2283 -79.0369 333° Northwest 163 188 12,000  Level Cleveland Center
02:47PM 41.2703 -79.0636 334° Northwest 163 188 12,000  Level Cleveland Center
02:48PM 41.3125 -79.0903 335° Northwest 163 188 12,000  Level Cleveland Center
02:49PM 41.3544 -79.1197 332° Northwest 163 188 12,000  Level Cleveland Center
02:50PM 41.3944 -79.1494 331° Northwest 163 188 12,000  Level Cleveland Center
02:51PM 41.4364 -79.1761 335° Northwest 163 188 12,000  Level Cleveland Center
02:52PM 41.4786 -79.2031 334° Northwest 163 188 12,000  Level Cleveland Center
02:53PM 41.5206 -79.2325 332° Northwest 163 188 12,000  Level Cleveland Center
02:54PM 41.5647 -79.2594 335° Northwest 163 188 12,000  Level Cleveland Center
02:55PM 41.6067 -79.2892 332° Northwest 163 188 12,000  Level Cleveland Center
02:56PM 41.6486 -79.3161 334° Northwest 163 188 12,000  Level Cleveland Center
02:57PM 41.6906 -79.3458 332° Northwest 163 188 12,000  Level Cleveland Center
02:58PM 41.7347 -79.3756 333° Northwest 163 188 12,000  Level Cleveland Center
02:59PM 41.7767 -79.4025 334° Northwest 168 193 12,000  Level Cleveland Center
03:00PM 41.8208 -79.4325 333° Northwest 168 193 12,000 -60 Level Cleveland Center
03:01PM 41.8628 -79.4625 332° Northwest 168 193 11,900 -60 Descending Cleveland Center
03:02PM 41.9047 -79.4922 332° Northwest 168 193 11,900  Level Cleveland Center
03:03PM 41.9489 -79.5167 338° Northwest 168 193 11,900  Level Cleveland Center
03:04PM 41.9886 -79.5467 331° Northwest 168 193 11,900  Level Cleveland Center
03:05PM 42.0306 -79.5769 332° Northwest 168 193 11,900  Level Cleveland Center
03:06PM 42.0747 -79.6042 335° Northwest 168 193 11,900  Level Cleveland Center
03:07PM 42.1186 -79.6314 335° Northwest 168 193 11,900  Level Cleveland Center
03:08PM 42.1606 -79.6644 330° Northwest 168 193 11,900  Level Cleveland Center
03:09PM 42.2006 -79.6947 331° Northwest 168 193 11,900  Level Cleveland Center
03:10PM 42.2444 -79.7250 333° Northwest 170 196 11,900  Level Cleveland Center
03:11PM 42.2947 -79.7581 334° Northwest 175 201 11,900  Level Cleveland Center
03:12PM 42.3367 -79.7883 332° Northwest 175 201 11,900  Level Cleveland Center
03:13PM 42.3806 -79.8186 333° Northwest 175 201 11,900 -60 Level Cleveland Center
03:14PM 42.4244 -79.8461 335° Northwest 175 201 11,800 -300 Descending Cleveland Center
03:15PM 42.4747 -79.8767 336° Northwest 180 207 11,400 -420 Descending Cleveland Center
03:16PM 42.5228 -79.9128 331° Northwest 190 219 11,000 -360 Descending Cleveland Center
03:17PM 42.5689 -79.9433 334° Northwest 185 213 10,700 -420 Descending Cleveland Center
03:18PM 42.6253 -79.9794 335° Northwest 197 227 10,200 -420 Descending Cleveland Center
03:19PM 42.6694 -80.0183 327° Northwest 197 227 9,900 -360 Descending Cleveland Center
03:20PM 42.7175 -80.0547 331° Northwest 197 227 9,500 -360 Descending Cleveland Center
03:21PM 42.7697 -80.0883 335° Northwest 203 234 9,200 -300 Descending Cleveland Center